Time;durP1;ratioP1;P1;durP2;ratioP2;P2;SDS_P1;SDS_P2;PMS_P1;PMS_P2;Temp;Humidity;BMP_temperature;BMP_pressure;BME280_temperature;BME280_humidity;BME280_pressure;Samples;Min_cycle;Max_cycle;Signal;HPM_P1;HPM_P2
2021/01/01 00:00:36;;;;;;;48.17;43.05;;;;;;;19.16;49.90;100634.47;5071303;28;20489;-78
2021/01/01 00:03:02;;;;;;;47.13;41.75;;;;;;;19.04;50.05;100632.00;5087554;28;20070;-77
2021/01/01 00:05:28;;;;;;;48.47;43.38;;;;;;;18.98;50.02;100634.66;5081530;28;20031;-78
2021/01/01 00:07:53;;;;;;;50.00;44.85;;;;;;;18.88;50.20;100633.88;5086589;28;20027;-78
2021/01/01 00:10:19;;;;;;;48.50;43.53;;;;;;;18.82;50.37;100628.72;5068127;28;20051;-78
2021/01/01 00:12:44;;;;;;;48.67;43.35;;;;;;;18.77;50.33;100636.63;5060640;28;20090;-78
2021/01/01 00:15:11;;;;;;;49.30;44.15;;;;;;;18.74;50.41;100638.38;5075226;28;20439;-78
2021/01/01 00:17:36;;;;;;;51.42;46.17;;;;;;;18.75;50.49;100643.63;5071796;28;20024;-77
2021/01/01 00:20:04;;;;;;;53.67;48.03;;;;;;;18.71;50.45;100636.66;5092163;28;20390;-78
2021/01/01 00:22:29;;;;;;;52.28;46.83;;;;;;;18.67;50.43;100639.34;5077291;28;20425;-78
2021/01/01 00:24:54;;;;;;;54.60;48.72;;;;;;;18.64;50.54;100637.59;5075646;28;20027;-78
2021/01/01 00:27:20;;;;;;;52.17;46.65;;;;;;;18.63;50.62;100638.50;5051180;28;20035;-78
2021/01/01 00:29:45;;;;;;;52.13;46.72;;;;;;;18.60;50.53;100637.63;5069974;28;20475;-78
2021/01/01 00:32:11;;;;;;;52.50;46.92;;;;;;;18.56;50.60;100639.41;5093067;28;20043;-78
2021/01/01 00:34:36;;;;;;;53.42;48.03;;;;;;;18.55;50.09;100638.53;5087781;28;20097;-78
2021/01/01 00:37:02;;;;;;;53.78;47.95;;;;;;;18.51;50.36;100631.56;5101301;28;20393;-78
2021/01/01 00:39:28;;;;;;;54.70;48.88;;;;;;;18.52;50.35;100641.16;5089253;28;20035;-79
2021/01/01 00:41:53;;;;;;;53.25;47.50;;;;;;;18.46;50.41;100622.88;5083556;28;20035;-71
2021/01/01 00:44:18;;;;;;;57.75;51.67;;;;;;;18.44;50.36;100626.38;5106497;28;20032;-71
2021/01/01 00:46:44;;;;;;;56.83;50.72;;;;;;;18.40;50.44;100619.47;5072710;28;20051;-71
2021/01/01 00:49:09;;;;;;;57.78;51.88;;;;;;;18.41;50.31;100627.31;5058907;28;20107;-71
2021/01/01 00:51:35;;;;;;;58.15;52.13;;;;;;;18.39;50.29;100620.34;5062393;28;20028;-71
2021/01/01 00:54:02;;;;;;;58.72;52.40;;;;;;;18.39;50.04;100629.06;5082507;28;20469;-78
2021/01/01 00:56:29;;;;;;;60.10;53.70;;;;;;;18.40;50.26;100629.94;5083733;28;20421;-78
2021/01/01 00:58:56;;;;;;;59.75;53.42;;;;;;;18.37;50.32;100638.66;5108432;28;20038;-77
2021/01/01 01:01:26;;;;;;;59.40;53.22;;;;;;;18.35;50.18;100629.09;5080180;28;20016;-71
2021/01/01 01:03:53;;;;;;;61.33;55.05;;;;;;;18.38;50.13;100634.31;5093282;28;20031;-71
2021/01/01 01:06:20;;;;;;;61.45;55.15;;;;;;;18.33;50.03;100626.47;5091999;28;20019;-71
2021/01/01 01:08:46;;;;;;;59.58;53.45;;;;;;;18.32;50.22;100629.09;5090997;28;20119;-71
2021/01/01 01:11:12;;;;;;;64.80;57.85;;;;;;;18.30;50.30;100630.88;5094678;28;20047;-71
2021/01/01 01:13:38;;;;;;;62.40;55.45;;;;;;;18.30;50.38;100637.00;5069943;28;20028;-71
2021/01/01 01:16:04;;;;;;;63.80;57.35;;;;;;;18.28;50.12;100633.50;5084677;28;20104;-71
2021/01/01 01:18:30;;;;;;;59.63;53.30;;;;;;;18.30;50.06;100641.34;5094463;28;20027;-71
2021/01/01 01:20:55;;;;;;;63.08;56.60;;;;;;;18.27;49.99;100642.25;5113966;28;20073;-78
2021/01/01 01:23:21;;;;;;;65.53;58.72;;;;;;;18.24;49.92;100633.53;5088304;28;20445;-78
2021/01/01 01:25:47;;;;;;;62.20;55.75;;;;;;;18.27;49.85;100641.38;5115413;28;20051;-78
2021/01/01 01:28:13;;;;;;;63.63;56.88;;;;;;;18.23;50.03;100643.13;5114103;28;20396;-78
2021/01/01 01:30:38;;;;;;;62.28;55.88;;;;;;;18.23;50.15;100644.88;5076215;28;20126;-77
2021/01/01 01:33:04;;;;;;;62.22;55.58;;;;;;;18.23;49.99;100643.13;5068938;28;20031;-79
2021/01/01 01:35:29;;;;;;;61.65;55.15;;;;;;;18.21;49.91;100643.13;5077918;28;20486;-78
2021/01/01 01:37:55;;;;;;;61.55;54.97;;;;;;;18.19;49.89;100646.66;5088209;28;20117;-78
2021/01/01 01:40:21;;;;;;;62.55;55.95;;;;;;;18.18;50.04;100647.53;5085318;28;20043;-78
2021/01/01 01:42:47;;;;;;;60.15;53.92;;;;;;;18.16;49.99;100651.91;5089348;28;20093;-77
2021/01/01 01:45:13;;;;;;;61.47;54.75;;;;;;;18.18;49.98;100658.84;5089743;28;20066;-77
2021/01/01 01:47:39;;;;;;;62.80;56.17;;;;;;;18.17;49.86;100661.50;5075829;28;20028;-79
2021/01/01 01:50:05;;;;;;;60.83;54.38;;;;;;;18.12;50.14;100647.56;5087716;28;20080;-78
2021/01/01 01:52:33;;;;;;;59.30;53.05;;;;;;;18.14;50.03;100656.28;5083503;28;20028;-78
2021/01/01 01:54:58;;;;;;;60.45;54.05;;;;;;;18.14;50.39;100658.91;5062496;28;20028;-78
2021/01/01 01:57:25;;;;;;;63.13;56.65;;;;;;;18.13;50.27;100655.41;5089832;28;20027;-78
2021/01/01 01:59:54;;;;;;;59.75;53.40;;;;;;;18.10;49.84;100651.94;5084252;28;20031;-77
2021/01/01 02:02:21;;;;;;;62.78;56.08;;;;;;;18.11;50.02;100665.03;5091799;28;20043;-77
2021/01/01 02:04:47;;;;;;;61.08;54.55;;;;;;;18.09;49.84;100663.28;5095812;28;20020;-77
2021/01/01 02:07:13;;;;;;;59.67;53.53;;;;;;;18.07;49.98;100665.91;5113991;28;20020;-78
2021/01/01 02:09:39;;;;;;;61.67;55.30;;;;;;;18.06;49.73;100658.06;5095728;28;20081;-77
2021/01/01 02:12:04;;;;;;;60.70;54.78;;;;;;;18.08;50.05;100667.66;5106125;28;20380;-78
2021/01/01 02:14:30;;;;;;;61.20;54.78;;;;;;;18.04;49.73;100665.09;5091467;28;20055;-78
2021/01/01 02:16:55;;;;;;;59.42;52.97;;;;;;;18.07;49.93;100668.53;5107704;28;20031;-78
2021/01/01 02:19:21;;;;;;;61.50;55.22;;;;;;;18.07;49.70;100675.50;5085466;28;20043;-78
2021/01/01 02:21:49;;;;;;;62.05;55.63;;;;;;;18.04;49.55;100665.94;5094427;28;20027;-71
2021/01/01 02:24:14;;;;;;;59.45;53.03;;;;;;;18.03;49.74;100674.69;5085169;28;20070;-71
2021/01/01 02:26:39;;;;;;;60.92;54.80;;;;;;;18.03;49.82;100679.03;5089169;28;20056;-71
2021/01/01 02:29:05;;;;;;;63.10;56.40;;;;;;;18.04;49.59;100683.41;5049847;28;20040;-78
2021/01/01 02:31:30;;;;;;;59.85;53.85;;;;;;;18.00;50.00;100677.31;5091295;28;20042;-77
2021/01/01 02:33:56;;;;;;;63.00;55.15;;;;;;;18.00;49.49;100679.91;5071612;28;20082;-78
2021/01/01 02:36:22;;;;;;;59.83;53.67;;;;;;;18.00;49.70;100676.44;5091880;28;20050;-77
2021/01/01 02:38:47;;;;;;;59.42;53.25;;;;;;;17.97;49.52;100672.09;5075119;28;20036;-78
2021/01/01 02:41:13;;;;;;;59.88;53.45;;;;;;;18.00;49.50;100682.53;5086336;28;20381;-78
2021/01/01 02:43:38;;;;;;;58.28;52.38;;;;;;;17.97;49.45;100682.53;5095639;28;20066;-78
2021/01/01 02:46:04;;;;;;;58.03;52.13;;;;;;;17.94;49.50;100674.72;5095195;28;20381;-78
2021/01/01 02:48:29;;;;;;;58.08;52.05;;;;;;;17.97;49.64;100687.78;5068035;28;20039;-77
2021/01/01 02:50:54;;;;;;;56.55;50.80;;;;;;;17.95;49.39;100681.69;5111460;28;20043;-77
2021/01/01 02:53:20;;;;;;;61.85;55.22;;;;;;;17.96;49.50;100685.16;5105487;28;20019;-71
2021/01/01 02:55:45;;;;;;;59.65;53.45;;;;;;;17.94;49.74;100681.69;5084440;28;20480;-71
2021/01/01 02:58:11;;;;;;;59.00;52.78;;;;;;;17.90;49.32;100680.84;5072214;28;20028;-71
2021/01/01 03:00:38;;;;;;;58.40;52.40;;;;;;;17.89;49.74;100681.72;5072815;28;20046;-71
2021/01/01 03:03:04;;;;;;;59.80;53.55;;;;;;;17.89;49.71;100684.34;5085826;28;20380;-71
2021/01/01 03:05:30;;;;;;;60.17;53.95;;;;;;;17.92;49.65;100686.06;5067980;28;20028;-71
2021/01/01 03:07:55;;;;;;;57.35;51.00;;;;;;;17.90;49.43;100678.25;5089886;28;20059;-71
2021/01/01 03:10:21;;;;;;;59.20;53.05;;;;;;;17.89;49.47;100676.50;5101511;28;20161;-71
2021/01/01 03:12:46;;;;;;;58.28;52.25;;;;;;;17.87;49.44;100673.00;5106896;28;20505;-71
2021/01/01 03:15:12;;;;;;;56.97;50.95;;;;;;;17.88;49.46;100671.28;5073674;28;20056;-71
2021/01/01 03:17:38;;;;;;;58.15;52.13;;;;;;;17.89;49.42;100676.50;5108163;28;20035;-70
2021/01/01 03:20:05;;;;;;;59.55;53.10;;;;;;;17.88;49.54;100679.13;5089888;28;20489;-71
2021/01/01 03:22:30;;;;;;;57.35;51.20;;;;;;;17.89;49.31;100675.63;5088796;28;20458;-71
2021/01/01 03:24:55;;;;;;;58.13;51.95;;;;;;;17.88;49.45;100679.13;5112583;28;20102;-71
2021/01/01 03:27:20;;;;;;;57.33;51.25;;;;;;;17.88;49.36;100681.72;5088212;28;20059;-71
2021/01/01 03:29:46;;;;;;;57.78;51.92;;;;;;;17.87;49.52;100674.75;5112060;28;20055;-71
2021/01/01 03:32:11;;;;;;;58.63;52.33;;;;;;;17.81;49.21;100665.19;5067187;28;20060;-71
2021/01/01 03:34:36;;;;;;;55.03;49.15;;;;;;;17.83;49.48;100666.91;5061828;28;20055;-71
2021/01/01 03:37:02;;;;;;;56.88;50.72;;;;;;;17.83;49.17;100664.31;5059460;28;20072;-71
2021/01/01 03:39:27;;;;;;;58.05;52.15;;;;;;;17.80;49.40;100661.69;5104680;28;20052;-71
2021/01/01 03:41:53;;;;;;;55.58;49.80;;;;;;;17.83;49.48;100672.16;5104424;28;20028;-71
2021/01/01 03:44:18;;;;;;;55.13;49.50;;;;;;;17.83;49.44;100671.28;5089482;28;20121;-70
2021/01/01 03:46:43;;;;;;;55.00;49.10;;;;;;;17.79;49.44;100662.56;5098590;28;20027;-71
2021/01/01 03:49:09;;;;;;;56.80;50.80;;;;;;;17.81;49.36;100668.66;5093394;28;20047;-71
2021/01/01 03:51:34;;;;;;;58.05;51.83;;;;;;;17.78;49.31;100662.59;5080994;28;20032;-71
2021/01/01 03:53:59;;;;;;;53.97;48.38;;;;;;;17.77;49.32;100666.09;5062406;28;20035;-71
2021/01/01 03:56:24;;;;;;;54.75;49.10;;;;;;;17.80;49.07;100668.66;5114565;28;20093;-71
2021/01/01 03:58:50;;;;;;;52.10;46.72;;;;;;;17.81;49.35;100668.66;5092704;28;20122;-71
2021/01/01 04:01:16;;;;;;;54.80;49.25;;;;;;;17.80;49.29;100666.06;5090275;28;20067;-71
2021/01/01 04:03:42;;;;;;;54.92;48.83;;;;;;;17.79;49.60;100669.53;5090792;28;20043;-71
2021/01/01 04:06:07;;;;;;;55.70;49.90;;;;;;;17.75;49.19;100665.22;5081591;28;20032;-71
2021/01/01 04:08:32;;;;;;;52.33;46.95;;;;;;;17.74;49.37;100666.09;5111729;28;20471;-71
2021/01/01 04:10:58;;;;;;;53.08;47.47;;;;;;;17.76;49.24;100667.84;5070597;28;20066;-71
2021/01/01 04:13:23;;;;;;;54.85;49.08;;;;;;;17.75;49.26;100670.47;5084350;28;20031;-71
2021/01/01 04:15:48;;;;;;;55.28;49.50;;;;;;;17.78;49.22;100681.78;5086220;28;20036;-71
2021/01/01 04:18:14;;;;;;;54.42;48.50;;;;;;;17.77;49.54;100672.19;5069633;28;20092;-71
2021/01/01 04:20:39;;;;;;;51.78;45.90;;;;;;;17.77;49.22;100668.72;5069846;28;20493;-71
2021/01/01 04:23:05;;;;;;;53.15;47.70;;;;;;;17.76;49.26;100669.59;5077154;28;20039;-71
2021/01/01 04:25:30;;;;;;;52.15;46.90;;;;;;;17.73;49.05;100669.59;5094072;28;20019;-71
2021/01/01 04:27:55;;;;;;;52.47;46.78;;;;;;;17.75;49.28;100663.50;5091111;28;20036;-72
2021/01/01 04:30:21;;;;;;;54.22;48.72;;;;;;;17.74;49.25;100672.22;5087291;28;20492;-71
2021/01/01 04:32:46;;;;;;;54.30;48.88;;;;;;;17.76;49.24;100672.19;5074838;28;20089;-71
2021/01/01 04:35:12;;;;;;;51.00;45.65;;;;;;;17.74;49.18;100677.44;5109140;28;20066;-71
2021/01/01 04:37:37;;;;;;;52.53;47.17;;;;;;;17.70;49.38;100670.47;5109230;28;20111;-72
2021/01/01 04:40:04;;;;;;;52.20;46.90;;;;;;;17.71;49.21;100676.56;5081150;28;20093;-79
2021/01/01 04:42:29;;;;;;;53.58;47.78;;;;;;;17.70;49.02;100674.84;5108662;28;20088;-71
2021/01/01 04:44:55;;;;;;;49.47;44.47;;;;;;;17.69;48.94;100665.25;5079576;28;20036;-71
2021/01/01 04:47:22;;;;;;;51.05;45.55;;;;;;;17.71;49.34;100674.81;5102111;28;20553;-71
2021/01/01 04:49:50;;;;;;;51.63;46.22;;;;;;;17.72;49.43;100675.69;5091900;28;20027;-71
2021/01/01 04:52:17;;;;;;;50.55;45.10;;;;;;;17.67;49.16;100667.00;5074672;28;20538;-72
2021/01/01 04:54:44;;;;;;;49.75;44.72;;;;;;;17.67;49.20;100670.47;5085996;28;20031;-71
2021/01/01 04:57:10;;;;;;;50.47;45.10;;;;;;;17.65;49.06;100672.25;5106865;28;20031;-71
2021/01/01 04:59:36;;;;;;;50.08;44.95;;;;;;;17.66;49.32;100670.47;5074033;28;20575;-71
2021/01/01 05:02:01;;;;;;;50.35;45.25;;;;;;;17.69;49.23;100679.19;5105369;28;20044;-71
2021/01/01 05:04:26;;;;;;;50.95;45.70;;;;;;;17.61;49.20;100669.63;5069746;28;20028;-71
2021/01/01 05:06:52;;;;;;;53.00;47.33;;;;;;;17.65;49.12;100671.38;5085638;28;20488;-71
2021/01/01 05:09:17;;;;;;;48.65;43.72;;;;;;;17.64;49.11;100675.75;5083594;28;20046;-71
2021/01/01 05:11:42;;;;;;;49.50;44.42;;;;;;;17.68;49.14;100676.56;5092697;28;20438;-72
2021/01/01 05:14:08;;;;;;;51.63;46.40;;;;;;;17.68;49.16;100677.44;5098319;28;20489;-72
2021/01/01 05:16:35;;;;;;;48.25;43.42;;;;;;;17.68;48.84;100677.44;5089346;28;20027;-71
2021/01/01 05:19:09;;;;;;;49.65;44.38;;;;;;;17.63;49.06;100678.31;5071394;28;20551;-72
2021/01/01 05:21:34;;;;;;;48.58;43.40;;;;;;;17.63;49.11;100676.63;5107774;28;20031;-72
2021/01/01 05:24:03;;;;;;;48.88;43.63;;;;;;;17.62;49.18;100676.59;5104595;28;20389;-71
2021/01/01 05:26:29;;;;;;;45.70;41.00;;;;;;;17.57;49.28;100671.38;5091067;28;20369;-72
2021/01/01 05:28:55;;;;;;;51.08;45.72;;;;;;;17.63;49.29;100679.22;5074716;28;20032;-71
2021/01/01 05:31:30;;;;;;;50.83;45.65;;;;;;;17.59;48.99;100679.22;5087145;28;20030;-72
2021/01/01 05:34:00;;;;;;;52.50;47.10;;;;;;;17.63;49.23;100688.78;5068612;28;20138;-72
2021/01/01 05:36:43;;;;;;;48.08;43.13;;;;;;;17.59;49.13;100677.47;5086568;28;20097;-71
2021/01/01 05:39:21;;;;;;;48.50;43.42;;;;;;;17.58;49.36;100675.72;5088102;28;20112;-71
2021/01/01 05:41:49;;;;;;;47.83;42.88;;;;;;;17.61;49.28;100677.47;5101048;28;20027;-72
2021/01/01 05:44:32;;;;;;;49.60;44.42;;;;;;;17.56;49.10;100673.97;5091676;28;20423;-71
2021/01/01 05:47:10;;;;;;;47.92;42.97;;;;;;;17.56;49.02;100679.22;5105014;28;20046;-72
2021/01/01 05:49:37;;;;;;;48.28;43.13;;;;;;;17.57;48.90;100679.22;5107753;28;20020;-71
2021/01/01 05:52:07;;;;;;;46.53;41.55;;;;;;;17.59;48.92;100684.44;5091071;28;20038;-71
2021/01/01 05:54:33;;;;;;;48.90;43.75;;;;;;;17.59;49.30;100681.81;5096017;28;20031;-72
2021/01/01 05:56:59;;;;;;;49.13;43.80;;;;;;;17.59;49.09;100679.22;5074044;28;20484;-72
2021/01/01 05:59:28;;;;;;;47.45;42.47;;;;;;;17.56;49.31;100685.31;5076319;28;20089;-78
2021/01/01 06:01:57;;;;;;;49.97;42.97;;;;;;;17.57;49.03;100683.56;5085668;28;20031;-78
2021/01/01 06:04:24;;;;;;;47.70;42.38;;;;;;;17.54;49.06;100688.78;5080240;28;20028;-78
2021/01/01 06:06:53;;;;;;;50.35;45.10;;;;;;;17.49;49.16;100687.09;5084265;28;20026;-79
2021/01/01 06:09:21;;;;;;;47.92;42.95;;;;;;;17.56;49.10;100693.16;5111077;28;20091;-77
2021/01/01 06:12:11;;;;;;;47.70;42.75;;;;;;;17.52;49.08;100691.44;5091011;28;20040;-78
2021/01/01 06:14:40;;;;;;;48.58;43.50;;;;;;;17.54;48.75;100699.25;5072787;28;20413;-79
2021/01/01 06:17:08;;;;;;;47.03;41.95;;;;;;;17.53;48.93;100703.63;5104196;28;20023;-78
2021/01/01 06:19:45;;;;;;;47.00;42.15;;;;;;;17.50;49.13;100696.69;5094422;28;20034;-78
2021/01/01 06:22:19;;;;;;;49.78;44.38;;;;;;;17.50;48.98;100698.41;5085085;28;20082;-79
2021/01/01 06:24:48;;;;;;;46.85;41.85;;;;;;;17.52;48.92;100701.91;5096358;28;20106;-78
2021/01/01 06:27:14;;;;;;;49.05;43.90;;;;;;;17.53;49.04;100705.38;5091085;28;20020;-78
2021/01/01 06:29:43;;;;;;;48.58;43.38;;;;;;;17.49;48.88;100696.69;5061040;28;20123;-78
2021/01/01 06:32:09;;;;;;;46.28;41.38;;;;;;;17.50;49.22;100708.88;5098201;28;20024;-79
2021/01/01 06:34:35;;;;;;;47.70;42.70;;;;;;;17.52;49.04;100706.25;5078705;28;20093;-78
2021/01/01 06:37:00;;;;;;;46.90;42.03;;;;;;;17.52;48.97;100720.22;5093635;28;20509;-78
2021/01/01 06:39:39;;;;;;;47.88;42.88;;;;;;;17.49;48.96;100721.06;5088075;28;20409;-78
2021/01/01 06:42:05;;;;;;;47.63;42.70;;;;;;;17.50;48.89;100725.44;5101687;28;20475;-78
2021/01/01 06:44:37;;;;;;;47.20;42.42;;;;;;;17.47;48.80;100724.56;5058315;28;20032;-77
2021/01/01 06:47:03;;;;;;;46.80;41.95;;;;;;;17.45;48.82;100721.94;5093194;28;20016;-78
2021/01/01 06:49:32;;;;;;;48.33;43.25;;;;;;;17.48;49.35;100727.19;5089487;28;20032;-78
2021/01/01 06:52:16;;;;;;;47.30;42.33;;;;;;;17.48;48.72;100727.19;5099243;28;20042;-78
2021/01/01 06:55:01;;;;;;;49.55;44.22;;;;;;;17.50;48.86;100729.78;5096828;28;20482;-77
2021/01/01 06:57:29;;;;;;;49.05;43.65;;;;;;;17.49;48.83;100730.66;5086235;28;20036;-78
2021/01/01 06:59:56;;;;;;;47.25;42.33;;;;;;;17.46;48.77;100728.91;5082108;28;20034;-78
2021/01/01 07:02:29;;;;;;;45.78;40.97;;;;;;;17.46;48.64;100734.16;5111615;28;20035;-77
2021/01/01 07:04:55;;;;;;;47.38;42.45;;;;;;;17.43;48.57;100734.16;5079032;28;20427;-78
2021/01/01 07:07:43;;;;;;;49.72;44.47;;;;;;;17.47;48.60;100737.63;5092013;28;20111;-77
2021/01/01 07:10:14;;;;;;;45.90;41.25;;;;;;;17.44;48.77;100740.25;5090262;28;20039;-78
2021/01/01 07:12:39;;;;;;;44.63;40.15;;;;;;;17.43;48.64;100734.16;5091904;28;20537;-78
2021/01/01 07:15:31;;;;;;;46.15;41.40;;;;;;;17.46;48.46;100741.13;5083956;28;20055;-78
2021/01/01 07:17:57;;;;;;;48.40;43.15;;;;;;;17.46;48.61;100734.16;5111574;28;20035;-78
2021/01/01 07:20:22;;;;;;;45.92;40.97;;;;;;;17.57;48.49;100738.47;5084156;28;20028;-77
2021/01/01 07:22:55;;;;;;;45.38;40.47;;;;;;;17.67;48.31;100751.53;5093687;28;20028;-81
2021/01/01 07:25:32;;;;;;;44.05;39.22;;;;;;;17.73;48.37;100753.28;5115004;28;20481;-77
2021/01/01 07:27:58;;;;;;;46.90;41.95;;;;;;;17.75;48.48;100759.38;5092579;28;20028;-71
2021/01/01 07:30:24;;;;;;;45.03;40.53;;;;;;;17.77;48.15;100755.03;5102340;28;20039;-72
2021/01/01 07:32:52;;;;;;;44.17;39.67;;;;;;;17.80;48.01;100753.25;5086937;28;20032;-72
2021/01/01 07:35:17;;;;;;;46.17;41.05;;;;;;;17.92;47.83;100759.31;5117305;28;20034;-72
2021/01/01 07:37:44;;;;;;;48.20;42.17;;;;;;;17.91;47.98;100762.81;5113271;28;20418;-72
2021/01/01 07:40:12;;;;;;;41.47;37.10;;;;;;;17.88;48.08;100760.22;5090650;28;20040;-71
2021/01/01 07:42:52;;;;;;;44.95;40.33;;;;;;;17.85;47.79;100754.09;5096558;28;20065;-72
2021/01/01 07:45:18;;;;;;;52.67;42.28;;;;;;;17.92;47.61;100764.53;5077685;28;20063;-72
2021/01/01 07:47:48;;;;;;;48.13;43.10;;;;;;;17.90;47.48;100776.78;5097071;28;20020;-71
2021/01/01 07:50:17;;;;;;;46.47;41.22;;;;;;;17.84;47.83;100782.88;5100446;28;20019;-74
2021/01/01 07:52:44;;;;;;;46.40;41.35;;;;;;;17.93;48.11;100777.63;5086458;28;20027;-74
2021/01/01 07:55:10;;;;;;;49.03;41.80;;;;;;;17.95;47.89;100786.34;5109963;28;20051;-71
2021/01/01 07:57:40;;;;;;;45.38;40.47;;;;;;;17.96;47.88;100781.97;5109818;28;20381;-72
2021/01/01 08:00:07;;;;;;;45.33;40.42;;;;;;;17.99;47.93;100777.59;5073878;28;20032;-70
2021/01/01 08:02:33;;;;;;;45.08;40.22;;;;;;;18.03;48.08;100784.56;5103557;28;20092;-77
2021/01/01 08:05:02;;;;;;;46.67;41.47;;;;;;;18.03;48.24;100784.56;5090804;28;20116;-77
2021/01/01 08:07:27;;;;;;;44.58;39.80;;;;;;;18.05;48.25;100790.66;5098565;28;20418;-76
2021/01/01 08:09:53;;;;;;;43.83;38.35;;;;;;;18.06;48.09;100787.16;5087636;28;20052;-77
2021/01/01 08:12:18;;;;;;;44.13;38.85;;;;;;;18.09;48.20;100794.13;5053579;28;20553;-71
2021/01/01 08:14:48;;;;;;;42.60;38.15;;;;;;;18.07;48.00;100799.38;5083332;28;20081;-72
2021/01/01 08:17:31;;;;;;;44.67;40.05;;;;;;;18.05;47.79;100793.25;5090902;28;20034;-72
2021/01/01 08:19:57;;;;;;;42.72;38.40;;;;;;;18.01;48.36;100794.19;5091879;28;20035;-71
2021/01/01 08:22:29;;;;;;;44.58;39.80;;;;;;;18.01;48.07;100801.16;5080794;28;20042;-72
2021/01/01 08:24:56;;;;;;;43.63;39.15;;;;;;;17.91;48.48;100784.63;5112256;28;20027;-72
2021/01/01 08:27:24;;;;;;;41.58;37.20;;;;;;;17.96;48.45;100793.31;5088590;28;20102;-71
2021/01/01 08:29:50;;;;;;;43.58;38.90;;;;;;;17.97;48.28;100800.28;5089062;28;20035;-72
2021/01/01 08:32:18;;;;;;;42.38;38.00;;;;;;;17.96;48.55;100797.66;5102815;28;20024;-72
2021/01/01 08:34:48;;;;;;;43.60;39.05;;;;;;;17.89;48.34;100796.84;5079060;28;20073;-72
2021/01/01 08:37:25;;;;;;;42.97;37.50;;;;;;;17.94;48.37;100805.53;5105872;28;20038;-71
2021/01/01 08:40:06;;;;;;;41.60;37.25;;;;;;;17.91;48.20;100802.94;5105917;28;20102;-72
2021/01/01 08:42:34;;;;;;;39.60;35.42;;;;;;;17.89;48.56;100799.44;5104230;28;20031;-72
2021/01/01 08:45:00;;;;;;;42.03;36.75;;;;;;;17.87;48.49;100792.47;5077066;28;20043;-72
2021/01/01 08:47:55;;;;;;;38.53;34.40;;;;;;;17.91;48.38;100796.84;5050303;28;20140;-72
2021/01/01 08:50:26;;;;;;;40.47;36.22;;;;;;;17.87;48.55;100793.34;5093072;28;20413;-72
2021/01/01 08:52:58;;;;;;;41.45;36.70;;;;;;;17.91;48.58;100799.44;5069570;28;20467;-71
2021/01/01 08:55:24;;;;;;;38.63;34.55;;;;;;;17.95;48.51;100791.56;5091174;28;20034;-73
2021/01/01 08:57:49;;;;;;;38.42;34.40;;;;;;;18.00;48.20;100797.66;5073748;28;20046;-72
2021/01/01 09:00:15;;;;;;;37.40;33.33;;;;;;;17.95;48.37;100786.34;5111455;28;20050;-72
2021/01/01 09:02:41;;;;;;;36.05;32.35;;;;;;;18.04;48.55;100799.41;5086618;28;20103;-72
2021/01/01 09:05:11;;;;;;;37.42;33.50;;;;;;;18.10;48.29;100799.38;5089355;28;20058;-72
2021/01/01 09:07:36;;;;;;;36.22;31.73;;;;;;;18.11;48.30;100801.09;5084944;28;20416;-71
2021/01/01 09:10:15;;;;;;;36.67;32.90;;;;;;;18.12;48.41;100810.69;5094326;28;20038;-72
2021/01/01 09:12:41;;;;;;;36.65;32.33;;;;;;;18.23;48.32;100817.63;5088555;28;20423;-72
2021/01/01 09:15:07;;;;;;;35.83;32.03;;;;;;;18.20;48.25;100821.13;5070700;28;20063;-72
2021/01/01 09:17:32;;;;;;;35.45;31.75;;;;;;;18.18;48.33;100821.13;5088854;28;20043;-76
2021/01/01 09:20:06;;;;;;;34.13;30.70;;;;;;;18.26;48.32;100826.34;5072768;28;20024;-78
2021/01/01 09:22:33;;;;;;;34.53;30.98;;;;;;;18.36;48.17;100824.56;5091006;28;20019;-77
2021/01/01 09:25:21;;;;;;;34.30;30.50;;;;;;;18.36;48.05;100814.94;5085376;28;20039;-80
2021/01/01 09:27:58;;;;;;;35.80;31.92;;;;;;;18.42;48.02;100825.41;5104586;28;20031;-76
2021/01/01 09:30:26;;;;;;;33.60;30.23;;;;;;;18.38;48.31;100834.16;5084084;28;20027;-77
2021/01/01 09:32:55;;;;;;;35.03;31.27;;;;;;;18.31;48.72;100831.53;5089479;28;20040;-78
2021/01/01 09:35:21;;;;;;;33.03;29.60;;;;;;;18.25;48.87;100823.72;5098175;28;20023;-76
2021/01/01 09:37:52;;;;;;;34.28;30.58;;;;;;;18.31;48.81;100832.41;5092130;28;20035;-78
2021/01/01 09:40:19;;;;;;;33.45;30.05;;;;;;;18.38;48.25;100828.91;5091856;28;20031;-78
2021/01/01 09:42:44;;;;;;;34.33;30.63;;;;;;;18.39;48.88;100827.16;5083213;28;20110;-77
2021/01/01 09:45:10;;;;;;;34.53;30.95;;;;;;;18.34;48.81;100828.91;5081729;28;20106;-79
2021/01/01 09:47:35;;;;;;;30.90;27.52;;;;;;;18.44;48.84;100841.09;5066682;28;20077;-77
2021/01/01 09:50:01;;;;;;;32.70;29.27;;;;;;;18.40;48.96;100835.00;5107382;28;20110;-78
2021/01/01 09:52:26;;;;;;;33.33;29.90;;;;;;;18.38;49.07;100831.53;5090606;28;20027;-78
2021/01/01 09:54:52;;;;;;;32.97;29.55;;;;;;;18.49;49.05;100834.09;5108402;28;20036;-77
2021/01/01 09:57:17;;;;;;;30.20;27.08;;;;;;;18.49;48.89;100837.56;5063986;28;20035;-77
2021/01/01 09:59:43;;;;;;;31.70;28.40;;;;;;;18.48;49.30;100842.81;5086309;28;20036;-77
2021/01/01 10:02:09;;;;;;;29.25;26.13;;;;;;;18.46;49.21;100836.72;5071889;28;20157;-77
2021/01/01 10:04:34;;;;;;;32.53;28.05;;;;;;;18.52;49.31;100839.31;5073966;28;20061;-77
2021/01/01 10:06:59;;;;;;;31.00;27.80;;;;;;;18.51;49.39;100842.81;5095781;28;20027;-77
2021/01/01 10:09:24;;;;;;;29.60;26.58;;;;;;;18.47;49.50;100839.31;5091592;28;20028;-77
2021/01/01 10:11:50;;;;;;;31.30;28.00;;;;;;;18.53;49.13;100843.69;5072507;28;20035;-78
2021/01/01 10:14:16;;;;;;;28.75;25.75;;;;;;;18.52;49.42;100844.56;5072035;28;20032;-75
2021/01/01 10:16:41;;;;;;;27.75;24.90;;;;;;;18.51;49.68;100853.28;5109519;28;20314;-79
2021/01/01 10:19:07;;;;;;;27.15;24.35;;;;;;;18.59;49.27;100854.13;5061161;28;20370;-78
2021/01/01 10:21:32;;;;;;;27.77;24.70;;;;;;;18.61;49.51;100854.13;5083059;28;20041;-78
2021/01/01 10:23:57;;;;;;;27.10;24.30;;;;;;;18.58;49.73;100857.63;5111599;28;20545;-78
2021/01/01 10:26:23;;;;;;;26.52;23.95;;;;;;;18.61;49.76;100852.38;5087733;28;20028;-79
2021/01/01 10:28:48;;;;;;;25.90;23.33;;;;;;;18.67;49.80;100857.63;5074092;28;20019;-79
2021/01/01 10:31:13;;;;;;;25.75;23.05;;;;;;;18.62;49.45;100841.03;5110150;28;20024;-75
2021/01/01 10:33:39;;;;;;;26.88;24.05;;;;;;;18.67;49.51;100847.13;5085187;28;20482;-78
2021/01/01 10:36:04;;;;;;;25.52;23.05;;;;;;;18.72;49.88;100850.56;5116279;28;20435;-79
2021/01/01 10:38:31;;;;;;;24.67;22.08;;;;;;;18.68;49.91;100848.88;5082850;28;20043;-76
2021/01/01 10:40:57;;;;;;;25.88;22.95;;;;;;;18.61;50.42;100847.16;5089336;28;20122;-77
2021/01/01 10:43:22;;;;;;;23.83;21.50;;;;;;;18.63;49.96;100845.41;5117795;28;20114;-79
2021/01/01 10:45:47;;;;;;;24.65;22.02;;;;;;;18.64;50.16;100856.75;5059295;28;20047;-78
2021/01/01 10:48:13;;;;;;;22.05;19.75;;;;;;;18.59;50.62;100851.53;5063722;28;20119;-78
2021/01/01 10:50:38;;;;;;;22.80;20.50;;;;;;;18.59;50.20;100850.66;5074629;28;20176;-79
2021/01/01 10:53:03;;;;;;;22.50;20.15;;;;;;;18.65;50.33;100853.25;5080725;28;20032;-79
2021/01/01 10:55:31;;;;;;;21.48;19.17;;;;;;;18.62;50.56;100851.50;5090738;28;20028;-79
2021/01/01 10:57:56;;;;;;;22.02;19.55;;;;;;;18.58;50.06;100847.16;5113435;28;20024;-79
2021/01/01 11:00:22;;;;;;;20.42;18.40;;;;;;;18.64;50.12;100847.16;5116215;28;20539;-79
2021/01/01 11:02:47;;;;;;;22.08;19.75;;;;;;;18.62;50.54;100843.66;5097275;28;20134;-79
2021/01/01 11:05:13;;;;;;;20.63;18.63;;;;;;;18.56;50.32;100841.91;5081771;28;21935;-79
2021/01/01 11:07:38;;;;;;;19.42;17.42;;;;;;;18.63;50.42;100840.16;5116898;28;20087;-78
2021/01/01 11:10:05;;;;;;;19.50;17.50;;;;;;;18.65;50.61;100842.78;5082197;28;20354;-78